createdAt,value
2023-11-29T00:00:13.130Z,31.45
2023-11-29T00:00:49.390Z,29.80
2023-11-29T00:01:26.465Z,29.77
2023-11-29T00:02:02.041Z,31.55
2023-11-29T00:02:39.385Z,29.73
2023-11-29T00:03:16.430Z,30.92
2023-11-29T00:03:53.187Z,33.20
2023-11-29T00:04:29.062Z,32.28
2023-11-29T00:05:05.684Z,32.75
2023-11-29T00:05:45.757Z,31.50
2023-11-29T00:06:21.141Z,30.48
2023-11-29T00:06:55.591Z,32.22
2023-11-29T00:07:31.936Z,30.85
2023-11-29T00:08:09.308Z,29.50
2023-11-29T00:08:46.100Z,29.80
2023-11-29T00:09:21.289Z,30.45
2023-11-29T00:09:56.014Z,29.75
2023-11-29T00:10:31.020Z,30.58
2023-11-29T00:11:05.956Z,30.73
2023-11-29T00:11:40.889Z,28.17
2023-11-29T00:12:15.466Z,30.38
2023-11-29T00:12:50.183Z,28.85
2023-11-29T00:13:25.724Z,30.30
2023-11-29T00:13:59.611Z,29.08
2023-11-29T00:14:34.557Z,26.80
2023-11-29T00:15:09.596Z,29.70
2023-11-29T00:15:44.568Z,28.95
2023-11-29T00:16:20.213Z,29.67
2023-11-29T00:16:58.596Z,29.83
2023-11-29T00:17:35.116Z,30.40
2023-11-29T00:18:08.569Z,29.50
2023-11-29T00:18:43.478Z,27.48
2023-11-29T00:19:16.774Z,28.40
2023-11-29T00:19:50.359Z,26.92
2023-11-29T00:20:24.397Z,28.20
2023-11-29T00:21:01.296Z,27.75
2023-11-29T00:21:34.680Z,29.45
2023-11-29T00:22:07.751Z,29.05
2023-11-29T00:22:40.824Z,29.45
2023-11-29T00:23:14.983Z,28.80
2023-11-29T00:23:48.308Z,28.40
2023-11-29T00:24:21.379Z,27.65
2023-11-29T00:24:54.872Z,26.67
2023-11-29T00:25:28.045Z,27.88
2023-11-29T00:26:01.331Z,26.05
2023-11-29T00:26:34.714Z,27.80
2023-11-29T00:27:08.101Z,26.38
2023-11-29T00:27:42.086Z,27.42
2023-11-29T00:28:15.368Z,26.77
2023-11-29T00:28:48.646Z,27.40
2023-11-29T00:29:22.840Z,27.13
2023-11-29T00:29:56.035Z,26.75
2023-11-29T00:30:30.950Z,27.42
2023-11-29T00:31:04.389Z,27.27
2023-11-29T00:31:37.725Z,26.63
2023-11-29T00:32:11.003Z,26.83
2023-11-29T00:32:44.360Z,27.15
2023-11-29T00:33:18.925Z,27.48
2023-11-29T00:33:53.498Z,28.48
2023-11-29T00:34:26.873Z,27.40
2023-11-29T00:35:00.361Z,26.90
2023-11-29T00:35:34.092Z,27.50
2023-11-29T00:36:08.777Z,27.52
2023-11-29T00:36:42.249Z,25.77
2023-11-29T00:37:16.039Z,25.95
2023-11-29T00:37:49.427Z,25.65
2023-11-29T00:38:23.119Z,25.48
2023-11-29T00:38:56.289Z,27.02
2023-11-29T00:39:29.678Z,26.85
2023-11-29T00:40:03.061Z,25.23
2023-11-29T00:40:36.235Z,27.00
2023-11-29T00:41:09.582Z,26.63
2023-11-29T00:41:44.292Z,26.45
2023-11-29T00:42:17.507Z,25.83
2023-11-29T00:42:53.530Z,26.20
2023-11-29T00:43:32.807Z,27.38
2023-11-29T00:44:06.188Z,26.83
2023-11-29T00:44:39.208Z,26.48
2023-11-29T00:45:12.431Z,26.63
2023-11-29T00:45:45.793Z,26.85
2023-11-29T00:46:19.094Z,27.80
2023-11-29T00:46:52.675Z,27.55
2023-11-29T00:47:26.062Z,26.70
2023-11-29T00:47:59.184Z,25.80
2023-11-29T00:48:32.665Z,26.50
2023-11-29T00:49:05.987Z,28.52
2023-11-29T00:49:39.387Z,28.73
2023-11-29T00:50:12.932Z,26.17
2023-11-29T00:50:46.508Z,27.67
2023-11-29T00:51:19.828Z,24.95
2023-11-29T00:51:53.412Z,25.98
2023-11-29T00:52:26.685Z,28.75
2023-11-29T00:53:00.213Z,27.52
2023-11-29T00:53:33.576Z,27.35
2023-11-29T00:54:07.044Z,29.65
2023-11-29T00:54:40.219Z,28.27
2023-11-29T00:55:16.800Z,28.73
2023-11-29T00:55:52.622Z,31.48
2023-11-29T00:56:25.863Z,30.92
2023-11-29T00:56:59.284Z,28.63
2023-11-29T00:57:32.563Z,30.58
2023-11-29T00:58:05.638Z,31.05
2023-11-29T00:58:39.225Z,29.27
2023-11-29T00:59:14.775Z,29.60
2023-11-29T00:59:48.078Z,29.58
2023-11-29T01:00:21.317Z,29.65
2023-11-29T01:00:54.632Z,28.60
2023-11-29T01:01:28.142Z,29.75
2023-11-29T01:02:01.430Z,30.48
2023-11-29T01:02:35.038Z,27.02
2023-11-29T01:03:09.024Z,24.75
2023-11-29T01:03:42.531Z,27.95
2023-11-29T01:04:16.027Z,28.35
2023-11-29T01:04:49.433Z,29.00
2023-11-29T01:05:23.123Z,27.33
2023-11-29T01:05:56.489Z,27.55
2023-11-29T01:06:29.648Z,27.23
2023-11-29T01:07:03.654Z,27.98
2023-11-29T01:07:36.821Z,28.17
2023-11-29T01:08:10.227Z,25.77
2023-11-29T01:08:44.886Z,27.70
2023-11-29T01:09:18.711Z,27.08
2023-11-29T01:09:51.994Z,28.25
2023-11-29T01:10:25.977Z,27.27
2023-11-29T01:11:00.309Z,27.98
2023-11-29T01:11:33.627Z,27.83
2023-11-29T01:12:07.060Z,27.80
2023-11-29T01:12:41.156Z,30.08
2023-11-29T01:13:14.440Z,28.63
2023-11-29T01:13:48.234Z,27.45
2023-11-29T01:14:21.557Z,28.90
2023-11-29T01:14:54.902Z,27.08
2023-11-29T01:15:28.379Z,28.65
2023-11-29T01:16:01.768Z,27.50
2023-11-29T01:16:35.460Z,28.25
2023-11-29T01:17:08.893Z,27.85
2023-11-29T01:17:42.160Z,27.27
2023-11-29T01:18:15.996Z,27.90
2023-11-29T01:18:49.770Z,28.05
2023-11-29T01:19:25.229Z,28.20
2023-11-29T01:19:58.413Z,28.52
2023-11-29T01:20:31.617Z,28.00
2023-11-29T01:21:05.298Z,27.27
2023-11-29T01:21:39.991Z,27.60
2023-11-29T01:22:13.371Z,28.35
2023-11-29T01:22:46.448Z,27.02
2023-11-29T01:23:19.640Z,28.48
2023-11-29T01:23:52.841Z,27.92
2023-11-29T01:24:26.288Z,28.33
2023-11-29T01:24:59.977Z,26.60
2023-11-29T01:25:33.157Z,27.20
2023-11-29T01:26:06.571Z,27.25
2023-11-29T01:26:40.552Z,26.67
2023-11-29T01:27:13.711Z,26.10
2023-11-29T01:27:47.197Z,28.35
2023-11-29T01:28:20.588Z,27.88
2023-11-29T01:28:53.866Z,27.48
2023-11-29T01:29:27.907Z,27.33
2023-11-29T01:30:04.208Z,27.05
2023-11-29T01:30:38.202Z,27.98
2023-11-29T01:31:11.795Z,28.90
2023-11-29T01:31:45.289Z,28.35
2023-11-29T01:32:19.086Z,29.77
2023-11-29T01:32:53.394Z,28.85
2023-11-29T01:33:26.995Z,29.27
2023-11-29T01:34:00.279Z,28.75
2023-11-29T01:34:33.524Z,26.98
2023-11-29T01:35:06.852Z,28.15
2023-11-29T01:35:40.240Z,27.48
2023-11-29T01:36:13.569Z,26.67
2023-11-29T01:36:46.771Z,27.08
2023-11-29T01:37:19.825Z,26.00
2023-11-29T01:37:53.107Z,27.73
2023-11-29T01:38:26.196Z,25.67
2023-11-29T01:38:59.561Z,27.02
2023-11-29T01:39:32.836Z,26.85
2023-11-29T01:40:06.753Z,27.08
2023-11-29T01:40:39.913Z,28.30
2023-11-29T01:41:13.100Z,27.65
2023-11-29T01:41:46.296Z,27.10
2023-11-29T01:42:19.675Z,27.05
2023-11-29T01:42:53.547Z,26.48
2023-11-29T01:43:27.035Z,25.67
2023-11-29T01:44:01.235Z,25.63
2023-11-29T01:44:34.462Z,26.50
2023-11-29T01:45:08.202Z,25.60
2023-11-29T01:45:41.613Z,25.23
2023-11-29T01:46:15.190Z,26.88
2023-11-29T01:46:50.176Z,26.52
2023-11-29T01:47:24.200Z,27.48
2023-11-29T01:47:57.644Z,26.27
2023-11-29T01:48:31.915Z,26.92
2023-11-29T01:49:05.469Z,27.77
2023-11-29T01:49:38.845Z,25.77
2023-11-29T01:50:13.284Z,27.08
2023-11-29T01:50:47.537Z,26.95
2023-11-29T01:51:21.557Z,27.52
2023-11-29T01:51:55.958Z,27.83
2023-11-29T01:52:30.577Z,26.83
2023-11-29T01:53:04.160Z,27.15
2023-11-29T01:53:39.905Z,26.58
2023-11-29T01:54:15.552Z,27.83
2023-11-29T01:54:48.833Z,27.67
2023-11-29T01:55:23.421Z,27.25
2023-11-29T01:55:56.603Z,28.27
2023-11-29T01:56:30.009Z,26.90
2023-11-29T01:57:04.293Z,27.48
2023-11-29T01:57:37.670Z,28.50
2023-11-29T01:58:11.587Z,28.52
2023-11-29T01:58:44.850Z,27.17
2023-11-29T01:59:18.668Z,27.92
2023-11-29T01:59:52.331Z,28.27
2023-11-29T02:00:25.814Z,27.77
2023-11-29T02:01:00.626Z,26.27
2023-11-29T02:01:33.806Z,27.98
2023-11-29T02:02:06.925Z,27.92
2023-11-29T02:02:40.927Z,28.77
2023-11-29T02:03:15.025Z,28.45
2023-11-29T02:03:49.301Z,29.08
2023-11-29T02:04:22.694Z,28.73
2023-11-29T02:04:56.047Z,28.42
2023-11-29T02:05:29.370Z,27.55
2023-11-29T02:06:03.853Z,27.35
2023-11-29T02:06:37.832Z,27.98
2023-11-29T02:07:13.273Z,28.33
2023-11-29T02:07:47.057Z,26.92
2023-11-29T02:08:20.468Z,27.42
2023-11-29T02:08:53.825Z,28.00
2023-11-29T02:09:27.208Z,26.55
2023-11-29T02:10:01.859Z,27.10
2023-11-29T02:10:36.532Z,27.70
2023-11-29T02:11:11.674Z,29.13
2023-11-29T02:11:46.081Z,28.17
2023-11-29T02:12:22.416Z,28.52
2023-11-29T02:12:55.997Z,29.15
2023-11-29T02:13:29.279Z,28.15
2023-11-29T02:14:03.598Z,28.42
2023-11-29T02:14:44.328Z,28.83
2023-11-29T02:15:17.621Z,30.92
2023-11-29T02:15:51.245Z,28.85
2023-11-29T02:16:24.777Z,28.27
2023-11-29T02:16:58.795Z,27.58
2023-11-29T02:17:32.245Z,29.05
2023-11-29T02:18:05.562Z,27.27
2023-11-29T02:18:39.866Z,28.58
2023-11-29T02:19:12.839Z,28.25
2023-11-29T02:19:45.906Z,27.77
2023-11-29T02:20:19.812Z,28.75
2023-11-29T02:20:53.291Z,28.92
2023-11-29T02:21:27.245Z,27.60
2023-11-29T02:22:00.669Z,27.05
2023-11-29T02:22:37.532Z,28.02
2023-11-29T02:23:19.241Z,30.08
2023-11-29T02:24:16.560Z,32.33
2023-11-29T02:24:50.036Z,35.40
2023-11-29T02:25:23.318Z,33.72
2023-11-29T02:25:56.604Z,32.33
2023-11-29T02:26:29.910Z,32.30
2023-11-29T02:27:02.865Z,32.53
2023-11-29T02:27:36.031Z,31.05
2023-11-29T02:28:09.107Z,31.95
2023-11-29T02:28:42.484Z,29.20
2023-11-29T02:29:15.697Z,30.63
2023-11-29T02:29:49.063Z,28.85
2023-11-29T02:30:22.431Z,30.35
2023-11-29T02:30:55.716Z,31.30
2023-11-29T02:31:28.612Z,30.58
2023-11-29T02:32:02.065Z,31.63
2023-11-29T02:32:35.097Z,31.08
2023-11-29T02:33:08.722Z,29.15
2023-11-29T02:33:42.321Z,31.17
2023-11-29T02:34:15.596Z,30.55
2023-11-29T02:34:48.875Z,31.25
2023-11-29T02:35:22.068Z,30.25
2023-11-29T02:35:56.777Z,30.88
2023-11-29T02:36:30.151Z,30.77
2023-11-29T02:37:04.355Z,30.77
2023-11-29T02:37:37.850Z,31.33
2023-11-29T02:38:11.549Z,29.95
2023-11-29T02:38:44.796Z,29.88
2023-11-29T02:39:17.676Z,28.92
2023-11-29T02:39:51.059Z,30.88
2023-11-29T02:40:25.829Z,30.27
2023-11-29T02:40:59.153Z,31.30
2023-11-29T02:41:32.566Z,30.77
2023-11-29T02:42:06.533Z,30.15
2023-11-29T02:42:39.616Z,31.05
2023-11-29T02:43:12.889Z,30.98
2023-11-29T02:43:46.618Z,30.27
2023-11-29T02:44:19.985Z,30.30
2023-11-29T02:44:53.246Z,31.08
2023-11-29T02:45:26.327Z,28.95
2023-11-29T02:45:59.701Z,29.25
2023-11-29T02:46:34.216Z,30.38
2023-11-29T02:47:07.605Z,30.95
2023-11-29T02:47:40.914Z,30.55
2023-11-29T02:48:14.258Z,29.88
2023-11-29T02:48:48.419Z,31.40
2023-11-29T02:49:21.947Z,30.90
2023-11-29T02:49:55.022Z,30.73
2023-11-29T02:50:28.276Z,29.67
2023-11-29T02:51:01.386Z,31.05
2023-11-29T02:51:35.473Z,30.08
2023-11-29T02:52:08.755Z,30.15
2023-11-29T02:52:42.036Z,30.88
2023-11-29T02:53:15.259Z,30.73
2023-11-29T02:53:48.742Z,31.08
2023-11-29T02:54:22.898Z,31.58
2023-11-29T02:54:56.301Z,31.65
2023-11-29T02:55:29.571Z,31.73
2023-11-29T02:56:02.740Z,30.98
2023-11-29T02:56:35.833Z,30.70
2023-11-29T02:57:08.996Z,30.38
2023-11-29T02:57:42.067Z,29.00
2023-11-29T02:58:15.040Z,29.38
2023-11-29T02:58:48.764Z,30.20
2023-11-29T02:59:22.279Z,28.90
2023-11-29T02:59:55.504Z,29.42
2023-11-29T03:00:28.879Z,30.23
2023-11-29T03:01:02.380Z,29.33
2023-11-29T03:01:36.253Z,28.90
2023-11-29T03:02:10.307Z,30.00
2023-11-29T03:02:43.609Z,30.40
2023-11-29T03:03:17.451Z,28.95
2023-11-29T03:03:50.935Z,31.10
2023-11-29T03:04:24.400Z,28.45
2023-11-29T03:04:57.684Z,29.75
2023-11-29T03:05:31.286Z,29.92
2023-11-29T03:06:04.664Z,29.27
2023-11-29T03:06:37.933Z,28.83
2023-11-29T03:07:11.829Z,28.58
2023-11-29T03:07:45.210Z,28.63
2023-11-29T03:08:19.842Z,28.63
2023-11-29T03:08:52.901Z,28.23
2023-11-29T03:09:25.982Z,30.25
2023-11-29T03:09:59.152Z,28.05
2023-11-29T03:10:32.334Z,28.33
2023-11-29T03:11:05.504Z,29.77
2023-11-29T03:11:38.868Z,28.65
2023-11-29T03:12:12.379Z,29.02
2023-11-29T03:12:45.573Z,30.10
2023-11-29T03:13:18.859Z,29.90
2023-11-29T03:13:52.108Z,28.83
2023-11-29T03:14:27.505Z,28.27
2023-11-29T03:15:01.129Z,29.83
2023-11-29T03:15:34.443Z,29.45
2023-11-29T03:16:08.412Z,29.52
2023-11-29T03:16:41.693Z,29.15
2023-11-29T03:17:14.670Z,30.05
2023-11-29T03:17:48.209Z,29.48
2023-11-29T03:18:21.597Z,29.35
2023-11-29T03:18:54.812Z,28.98
2023-11-29T03:19:28.906Z,28.75
2023-11-29T03:20:04.963Z,28.67
2023-11-29T03:20:40.095Z,29.63
2023-11-29T03:21:16.697Z,29.92
2023-11-29T03:21:53.699Z,30.08
2023-11-29T03:22:27.608Z,31.05
2023-11-29T03:23:02.627Z,30.52
2023-11-29T03:23:37.105Z,29.67
2023-11-29T03:24:10.814Z,30.20
2023-11-29T03:24:47.071Z,30.85
2023-11-29T03:25:21.780Z,31.00
2023-11-29T03:25:55.469Z,29.77
2023-11-29T03:26:29.491Z,29.85
2023-11-29T03:27:03.160Z,29.27
2023-11-29T03:27:37.678Z,29.13
2023-11-29T03:28:10.954Z,29.35
2023-11-29T03:28:44.130Z,27.75
2023-11-29T03:29:17.504Z,28.63
2023-11-29T03:29:51.133Z,28.63
2023-11-29T03:30:24.791Z,27.98
2023-11-29T03:30:58.372Z,28.60
2023-11-29T03:31:31.603Z,26.98
2023-11-29T03:32:05.442Z,28.77
2023-11-29T03:32:39.723Z,27.58
2023-11-29T03:33:14.521Z,27.70
2023-11-29T03:33:48.044Z,26.67
2023-11-29T03:34:21.850Z,27.42
2023-11-29T03:34:55.934Z,27.42
2023-11-29T03:35:29.055Z,27.55
2023-11-29T03:36:02.801Z,28.00
2023-11-29T03:36:36.186Z,28.00
2023-11-29T03:37:10.546Z,28.23
2023-11-29T03:37:45.412Z,28.90
2023-11-29T03:38:19.846Z,27.52
2023-11-29T03:38:53.312Z,28.55
2023-11-29T03:39:26.785Z,29.15
2023-11-29T03:40:00.514Z,28.42
2023-11-29T03:40:33.658Z,26.88
2023-11-29T03:41:07.339Z,28.88
2023-11-29T03:41:41.371Z,28.25
2023-11-29T03:42:14.721Z,26.20
2023-11-29T03:42:48.308Z,27.25
2023-11-29T03:43:21.597Z,27.67
2023-11-29T03:43:54.870Z,27.38
2023-11-29T03:44:28.478Z,27.75
2023-11-29T03:45:03.507Z,27.60
2023-11-29T03:45:37.488Z,28.33
2023-11-29T03:46:10.632Z,26.63
2023-11-29T03:46:44.031Z,28.17
2023-11-29T03:47:17.568Z,26.77
2023-11-29T03:47:50.968Z,28.17
2023-11-29T03:48:25.271Z,25.73
2023-11-29T03:48:58.698Z,28.15
2023-11-29T03:49:32.174Z,27.80
2023-11-29T03:50:05.454Z,27.38
2023-11-29T03:50:38.901Z,27.75
2023-11-29T03:51:12.233Z,27.83
2023-11-29T03:51:49.165Z,26.75
2023-11-29T03:52:26.354Z,28.15
2023-11-29T03:53:00.047Z,28.35
2023-11-29T03:53:33.466Z,28.10
2023-11-29T03:54:07.228Z,28.48
2023-11-29T03:54:40.711Z,27.33
2023-11-29T03:55:13.783Z,27.52
2023-11-29T03:55:47.880Z,28.20
2023-11-29T03:56:21.096Z,27.73
2023-11-29T03:56:54.619Z,27.55
2023-11-29T03:57:27.932Z,26.80
2023-11-29T03:58:02.033Z,27.40
2023-11-29T03:58:35.207Z,27.55
2023-11-29T03:59:08.498Z,26.30
2023-11-29T03:59:41.799Z,27.88
2023-11-29T04:00:18.433Z,27.98
2023-11-29T04:00:51.603Z,27.30
2023-11-29T04:01:24.901Z,27.20
2023-11-29T04:01:58.314Z,27.63
2023-11-29T04:02:31.767Z,28.92
2023-11-29T04:03:05.380Z,26.67
2023-11-29T04:03:38.854Z,27.30
2023-11-29T04:04:12.016Z,28.15
2023-11-29T04:04:45.545Z,28.35
2023-11-29T04:05:19.353Z,27.58
2023-11-29T04:05:52.623Z,28.08
2023-11-29T04:06:27.068Z,27.90
2023-11-29T04:07:03.525Z,27.60
2023-11-29T04:07:36.754Z,28.42
2023-11-29T04:08:10.194Z,28.52
2023-11-29T04:08:43.614Z,26.88
2023-11-29T04:09:18.392Z,29.48
2023-11-29T04:09:58.233Z,28.27
2023-11-29T04:10:36.428Z,30.17
2023-11-29T04:11:11.787Z,30.20
2023-11-29T04:11:47.731Z,31.35
2023-11-29T04:12:21.179Z,30.42
2023-11-29T04:12:54.249Z,30.25
2023-11-29T04:13:28.753Z,31.25
2023-11-29T04:14:02.138Z,30.85
2023-11-29T04:14:35.351Z,29.13
2023-11-29T04:15:09.095Z,30.25
2023-11-29T04:15:42.492Z,28.58
2023-11-29T04:16:23.469Z,28.02
2023-11-29T04:16:57.272Z,28.38
2023-11-29T04:17:32.414Z,29.92
2023-11-29T04:18:06.171Z,27.77
2023-11-29T04:18:41.075Z,28.85
2023-11-29T04:19:15.171Z,30.35
2023-11-29T04:19:49.139Z,30.35
2023-11-29T04:20:22.658Z,30.05
2023-11-29T04:20:58.909Z,30.48
2023-11-29T04:21:35.772Z,29.58
2023-11-29T04:22:09.155Z,29.92
2023-11-29T04:22:44.690Z,28.63
2023-11-29T04:23:17.991Z,29.73
2023-11-29T04:23:51.570Z,29.30
2023-11-29T04:24:25.147Z,29.10
2023-11-29T04:24:58.523Z,29.48
2023-11-29T04:25:32.191Z,30.23
2023-11-29T04:26:05.706Z,28.20
2023-11-29T04:26:40.032Z,28.80
2023-11-29T04:27:13.386Z,28.73
2023-11-29T04:27:46.980Z,29.27
2023-11-29T04:28:20.151Z,27.90
2023-11-29T04:28:53.325Z,28.75
2023-11-29T04:29:26.610Z,27.75
2023-11-29T04:30:01.228Z,29.35
2023-11-29T04:30:37.067Z,29.45
2023-11-29T04:31:10.265Z,29.67
2023-11-29T04:31:43.623Z,27.50
2023-11-29T04:32:16.918Z,29.17
2023-11-29T04:32:50.356Z,27.55
2023-11-29T04:33:23.754Z,27.38
2023-11-29T04:33:57.677Z,26.80
2023-11-29T04:35:06.797Z,29.83
2023-11-29T04:35:40.118Z,30.20
2023-11-29T04:36:13.452Z,29.75
2023-11-29T04:36:49.803Z,29.27
2023-11-29T04:37:24.102Z,31.67
2023-11-29T04:37:58.405Z,31.33
2023-11-29T04:38:31.849Z,31.90
2023-11-29T04:39:06.911Z,31.63
2023-11-29T04:39:40.809Z,31.90
2023-11-29T04:40:14.018Z,30.85
2023-11-29T04:40:48.315Z,30.17
2023-11-29T04:41:22.421Z,31.23
2023-11-29T04:41:56.005Z,31.58
2023-11-29T04:42:29.064Z,31.40
2023-11-29T04:43:02.844Z,30.67
2023-11-29T04:43:36.533Z,30.90
2023-11-29T04:44:10.951Z,30.63
2023-11-29T04:44:44.562Z,30.85
2023-11-29T04:45:17.708Z,30.80
2023-11-29T04:45:51.189Z,29.67
2023-11-29T04:46:25.321Z,30.40
2023-11-29T04:46:59.290Z,30.48
2023-11-29T04:47:32.358Z,30.77
2023-11-29T04:48:06.083Z,31.10
2023-11-29T04:48:39.546Z,28.95
2023-11-29T04:49:12.719Z,30.65
2023-11-29T04:49:45.894Z,29.60
2023-11-29T04:50:19.205Z,30.02
2023-11-29T04:50:53.020Z,28.80
2023-11-29T04:51:26.656Z,30.08
2023-11-29T04:51:59.746Z,29.80
2023-11-29T04:52:33.929Z,29.98
2023-11-29T04:53:07.112Z,30.98
2023-11-29T04:53:40.608Z,30.42
2023-11-29T04:54:13.987Z,29.73
2023-11-29T04:54:47.271Z,29.80
2023-11-29T04:55:20.543Z,30.85
2023-11-29T04:55:57.403Z,30.90
2023-11-29T04:56:32.107Z,30.55
2023-11-29T04:57:06.624Z,31.88
2023-11-29T04:57:39.802Z,30.08
2023-11-29T04:58:13.490Z,30.67
2023-11-29T04:58:47.897Z,30.13
2023-11-29T04:59:21.116Z,32.28
2023-11-29T04:59:54.462Z,31.02
2023-11-29T05:00:27.634Z,30.05
2023-11-29T05:01:00.823Z,31.48
2023-11-29T05:01:34.065Z,30.40
2023-11-29T05:02:07.764Z,31.50
2023-11-29T05:02:41.084Z,31.25
2023-11-29T05:03:14.228Z,29.45
2023-11-29T05:03:47.340Z,30.80
2023-11-29T05:04:23.001Z,31.35
2023-11-29T05:04:57.668Z,30.80
2023-11-29T05:05:30.760Z,29.00
2023-11-29T05:06:05.354Z,30.92
2023-11-29T05:06:38.733Z,30.95
2023-11-29T05:07:12.337Z,31.40
2023-11-29T05:07:45.513Z,30.70
2023-11-29T05:08:18.827Z,31.08
2023-11-29T05:08:52.299Z,29.00
2023-11-29T05:09:25.543Z,30.52
2023-11-29T05:09:59.447Z,30.35
2023-11-29T05:10:32.822Z,30.88
2023-11-29T05:11:06.157Z,30.13
2023-11-29T05:11:39.621Z,32.20
2023-11-29T05:12:13.081Z,32.35
2023-11-29T05:12:47.175Z,32.58
2023-11-29T05:13:20.352Z,31.25
2023-11-29T05:13:53.835Z,30.80
2023-11-29T05:14:26.810Z,33.45
2023-11-29T05:15:00.141Z,33.15
2023-11-29T05:15:34.596Z,33.00
2023-11-29T05:16:08.185Z,34.25
2023-11-29T05:16:41.467Z,34.78
2023-11-29T05:17:15.054Z,34.47
2023-11-29T05:17:48.519Z,35.30
2023-11-29T05:18:21.822Z,35.80
2023-11-29T05:18:55.273Z,35.75
2023-11-29T05:19:28.836Z,34.33
2023-11-29T05:20:02.173Z,33.20
2023-11-29T05:20:35.294Z,33.28
2023-11-29T05:21:08.728Z,34.10
2023-11-29T05:21:42.121Z,34.42
2023-11-29T05:22:15.506Z,32.20
2023-11-29T05:22:48.881Z,34.30
2023-11-29T05:23:22.907Z,33.45
2023-11-29T05:23:56.294Z,29.98
2023-11-29T05:24:29.856Z,32.40
2023-11-29T05:25:03.133Z,32.53
2023-11-29T05:25:36.611Z,32.03
2023-11-29T05:26:11.036Z,32.38
2023-11-29T05:26:44.313Z,33.90
2023-11-29T05:27:17.677Z,32.28
2023-11-29T05:27:52.598Z,32.95
2023-11-29T05:28:27.008Z,33.22
2023-11-29T05:29:02.127Z,33.15
2023-11-29T05:29:35.526Z,33.45
2023-11-29T05:30:09.930Z,31.83
2023-11-29T05:30:44.001Z,32.78
2023-11-29T05:31:17.613Z,33.08
2023-11-29T05:31:51.087Z,32.78
2023-11-29T05:32:24.326Z,33.20
2023-11-29T05:32:57.606Z,31.77
2023-11-29T05:33:31.294Z,32.15
2023-11-29T05:34:04.418Z,32.53
2023-11-29T05:34:37.700Z,31.77
2023-11-29T05:35:11.402Z,32.25
2023-11-29T05:35:45.076Z,32.10
2023-11-29T05:36:20.954Z,33.38
2023-11-29T05:36:55.631Z,33.47
2023-11-29T05:37:29.724Z,32.42
2023-11-29T05:38:03.014Z,33.38
2023-11-29T05:38:36.210Z,33.95
2023-11-29T05:39:10.900Z,33.67
2023-11-29T05:39:43.974Z,34.40
2023-11-29T05:40:22.171Z,35.67
2023-11-29T05:40:55.194Z,36.78
2023-11-29T05:41:28.455Z,33.03
2023-11-29T05:42:01.502Z,34.78
2023-11-29T05:42:34.674Z,34.33
2023-11-29T05:43:07.859Z,33.95
2023-11-29T05:43:41.851Z,34.88
2023-11-29T05:44:14.872Z,33.75
2023-11-29T05:44:49.367Z,34.05
2023-11-29T05:45:22.723Z,33.95
2023-11-29T05:45:56.196Z,34.20
2023-11-29T05:46:30.866Z,33.15
2023-11-29T05:47:04.110Z,34.10
2023-11-29T05:47:37.656Z,34.90
2023-11-29T05:48:10.953Z,33.67
2023-11-29T05:48:44.364Z,34.60
2023-11-29T05:49:17.637Z,33.45
2023-11-29T05:49:50.912Z,34.17
2023-11-29T05:50:24.750Z,34.28
2023-11-29T05:50:58.417Z,33.38
2023-11-29T05:51:32.611Z,33.33
2023-11-29T05:52:05.979Z,33.63
2023-11-29T05:52:39.256Z,33.35
2023-11-29T05:53:12.532Z,33.28
2023-11-29T05:53:45.947Z,34.30
2023-11-29T05:54:20.217Z,33.22
2023-11-29T05:54:54.407Z,33.53
2023-11-29T05:55:27.906Z,33.40
2023-11-29T05:56:01.093Z,33.35
2023-11-29T05:56:34.265Z,33.83
2023-11-29T05:57:08.357Z,34.35
2023-11-29T05:57:46.571Z,35.17
2023-11-29T05:58:20.054Z,35.45
2023-11-29T05:58:53.522Z,35.72
2023-11-29T05:59:27.862Z,35.38
2023-11-29T06:00:23.691Z,35.40
2023-11-29T06:01:02.968Z,37.10
2023-11-29T06:01:38.528Z,34.28
2023-11-29T06:02:12.387Z,34.72
2023-11-29T06:02:46.631Z,33.50
2023-11-29T06:03:19.993Z,32.17
2023-11-29T06:03:53.404Z,33.13
2023-11-29T06:04:27.604Z,31.70
2023-11-29T06:05:00.934Z,31.35
2023-11-29T06:05:34.174Z,32.17
2023-11-29T06:06:07.495Z,32.95
2023-11-29T06:06:40.476Z,33.33
2023-11-29T06:07:13.338Z,31.63
2023-11-29T06:07:48.363Z,32.30
2023-11-29T06:08:22.094Z,32.50
2023-11-29T06:08:55.591Z,31.08
2023-11-29T06:09:30.447Z,30.27
2023-11-29T06:10:05.274Z,30.67
2023-11-29T06:10:39.063Z,32.00
2023-11-29T06:11:14.084Z,31.83
2023-11-29T06:11:49.141Z,32.10
2023-11-29T06:12:22.585Z,32.40
2023-11-29T06:12:55.980Z,31.65
2023-11-29T06:13:28.847Z,32.15
2023-11-29T06:14:01.933Z,33.00
2023-11-29T06:14:35.882Z,32.35
2023-11-29T06:15:09.974Z,32.63
2023-11-29T06:15:44.774Z,31.27
2023-11-29T06:16:18.368Z,32.05
2023-11-29T06:16:51.592Z,32.05
2023-11-29T06:17:32.703Z,30.48
2023-11-29T06:18:07.277Z,31.65
2023-11-29T06:18:40.361Z,31.80
2023-11-29T06:19:13.524Z,31.13
2023-11-29T06:19:46.910Z,31.25
2023-11-29T06:20:21.753Z,29.88
2023-11-29T06:20:54.811Z,28.90
2023-11-29T06:21:28.178Z,29.98
2023-11-29T06:22:01.168Z,27.55
2023-11-29T06:22:34.958Z,26.25
2023-11-29T06:23:08.916Z,28.20
2023-11-29T06:23:44.754Z,29.55
2023-11-29T06:24:18.378Z,29.52
2023-11-29T06:24:52.881Z,29.23
2023-11-29T06:25:25.953Z,29.15
2023-11-29T06:25:58.822Z,29.48
2023-11-29T06:26:34.173Z,29.48
2023-11-29T06:27:07.545Z,26.92
2023-11-29T06:27:40.716Z,27.67
2023-11-29T06:28:14.312Z,26.38
2023-11-29T06:28:49.009Z,26.00
2023-11-29T06:29:22.609Z,28.73
2023-11-29T06:29:56.524Z,29.50
2023-11-29T06:30:31.720Z,29.45
2023-11-29T06:31:05.048Z,28.77
2023-11-29T06:31:41.450Z,29.70
2023-11-29T06:32:14.814Z,29.58
2023-11-29T06:32:48.446Z,28.83
2023-11-29T06:33:21.972Z,32.00
2023-11-29T06:33:55.337Z,30.77
2023-11-29T06:34:28.778Z,30.45
2023-11-29T06:35:02.055Z,30.45
2023-11-29T06:35:35.663Z,27.90
2023-11-29T06:36:09.129Z,29.77
2023-11-29T06:36:42.615Z,29.90
2023-11-29T06:37:16.408Z,28.98
2023-11-29T06:37:54.274Z,31.17
2023-11-29T06:38:33.766Z,32.40
2023-11-29T06:39:11.062Z,30.67
2023-11-29T06:39:48.434Z,32.30
2023-11-29T06:40:21.752Z,30.20
2023-11-29T06:40:59.690Z,29.42
2023-11-29T06:41:35.300Z,29.27
2023-11-29T06:42:08.558Z,30.17
2023-11-29T06:42:41.736Z,29.75
2023-11-29T06:43:15.835Z,30.58
2023-11-29T06:43:49.225Z,30.67
2023-11-29T06:44:22.313Z,30.33
2023-11-29T06:44:55.610Z,29.90
2023-11-29T06:45:28.756Z,28.98
2023-11-29T06:46:04.632Z,28.45
2023-11-29T06:46:41.048Z,24.98
2023-11-29T06:47:15.369Z,31.08
2023-11-29T06:47:49.011Z,30.27
2023-11-29T06:48:22.716Z,30.58
2023-11-29T06:48:56.314Z,28.98
2023-11-29T06:49:29.392Z,28.00
2023-11-29T06:50:02.681Z,29.20
2023-11-29T06:50:36.273Z,29.33
2023-11-29T06:51:09.638Z,28.40
2023-11-29T06:51:43.946Z,28.27
2023-11-29T06:52:17.119Z,26.23
2023-11-29T06:52:50.200Z,28.75
2023-11-29T06:53:23.411Z,27.67
2023-11-29T06:53:56.471Z,28.90
2023-11-29T06:54:29.627Z,27.83
2023-11-29T06:55:03.132Z,29.23
2023-11-29T06:55:36.290Z,30.67
2023-11-29T06:56:09.989Z,31.83
2023-11-29T06:56:43.220Z,30.83
2023-11-29T06:57:18.179Z,31.05
2023-11-29T06:57:52.607Z,30.27
2023-11-29T06:58:27.919Z,30.58
2023-11-29T06:59:01.195Z,29.70
2023-11-29T06:59:36.044Z,29.20
2023-11-29T07:00:10.931Z,28.38
2023-11-29T07:00:45.753Z,28.65
2023-11-29T07:01:19.153Z,30.23
2023-11-29T07:01:52.471Z,29.17
2023-11-29T07:02:26.580Z,29.02
2023-11-29T07:02:59.742Z,29.23
2023-11-29T07:03:32.977Z,29.83
2023-11-29T07:04:06.652Z,28.92
2023-11-29T07:04:40.677Z,27.52
2023-11-29T07:05:13.930Z,29.00
2023-11-29T07:05:47.257Z,29.42
2023-11-29T07:06:24.616Z,28.75
2023-11-29T07:06:57.981Z,29.50
2023-11-29T07:07:31.049Z,29.33
2023-11-29T07:08:04.338Z,27.85
2023-11-29T07:08:37.305Z,28.90
2023-11-29T07:09:10.477Z,28.58
2023-11-29T07:09:44.185Z,28.15
2023-11-29T07:10:19.807Z,28.98
2023-11-29T07:10:52.875Z,28.50
2023-11-29T07:11:26.147Z,29.30
2023-11-29T07:11:59.571Z,28.08
2023-11-29T07:12:33.869Z,25.48
2023-11-29T07:13:07.328Z,26.00
2023-11-29T07:13:40.420Z,28.38
2023-11-29T07:14:13.584Z,29.42
2023-11-29T07:14:46.769Z,29.80
2023-11-29T07:15:19.772Z,29.75
2023-11-29T07:15:58.280Z,29.63
2023-11-29T07:16:31.896Z,29.17
2023-11-29T07:17:07.559Z,28.70
2023-11-29T07:17:40.787Z,28.80
2023-11-29T07:18:14.090Z,30.17